Jud, North Dakota
Current Conditions -  °F | °C
As of 10:20 PM on Tuesday 25 Nov 2014 (Local Time) from KJMS Reporting Station
Light Snow Light Snow  
Wind Chill:   Ceiling: 1700
Heat Index: 17°   Visibility: 1.2mi
Dew Point: 13°   Wind: 22mph
Humidity: 84%   Direction: 40°NE
Pressure: 29.98"   Gusts: 32mph
Location:  46.53°N, 98.9°W
Report Text: KJMS 260420Z AUTO 04019G28KT 1 1/4SM -SN BR FEW009 OVC017 M08/M11 A2998 RMK AO2 PK WND 04028/0406 P0000 T10831106
Loading
Personal Weather Stations






























Interactive Weather Map New forecast layout! Learn more

10-Day Weather Forecast

Advertisements
Track Severe Weather on mobile